This is the latest recevied weather packets stored in our database for station/object F4LNO-10. If no packets are shown the sender has not sent any weather packets the latest 10 day(s).
| Time | Temp. | Humidity | Pressure | Rain* | Wind** | Luminosity | Snow |
|---|---|---|---|---|---|---|---|
| 1778136687 | 19.44° C | 59% | 1012.4 hPa | - | - | - | - |
| 1778135786 | 19.44° C | 60% | 1012.4 hPa | - | - | - | - |
| 1778134885 | 19.44° C | 59% | 1012.3 hPa | - | - | - | - |
| 1778133984 | 19.44° C | 57% | 1012 hPa | - | - | - | - |
| 1778133083 | 22.22° C | 52% | 1011.9 hPa | - | - | - | - |
| 1778132182 | 22.22° C | 52% | 1011.9 hPa | - | - | - | - |
| 1778131281 | 22.22° C | 52% | 1011.8 hPa | - | - | - | - |
| 1778130381 | 22.22° C | 52% | 1011.5 hPa | - | - | - | - |
| 1778129480 | 22.22° C | 54% | 1011.4 hPa | - | - | - | - |
| 1778128579 | 22.22° C | 52% | 1011.2 hPa | - | - | - | - |
| 1778127678 | 22.78° C | 54% | 1011.1 hPa | - | - | - | - |
| 1778126778 | 22.22° C | 52% | 1011.2 hPa | - | - | - | - |
| 1778125876 | 22.78° C | 53% | 1011.2 hPa | - | - | - | - |
| 1778124975 | 22.78° C | 52% | 1011 hPa | - | - | - | - |
| 1778124075 | 22.78° C | 52% | 1010.9 hPa | - | - | - | - |
| 1778123174 | 22.22° C | 52% | 1011 hPa | - | - | - | - |
| 1778122273 | 22.78° C | 52% | 1011.1 hPa | - | - | - | - |
| 1778121372 | 22.78° C | 52% | 1011.1 hPa | - | - | - | - |
| 1778120471 | 22.78° C | 52% | 1010.9 hPa | - | - | - | - |
| 1778119570 | 20° C | 59% | 1011 hPa | - | - | - | - |
| 1778118669 | 20° C | 59% | 1010.8 hPa | - | - | - | - |
| 1778117789 | 20.56° C | 57% | 1010.8 hPa | - | - | - | - |
| 1778116888 | 22.78° C | 52% | 1010.8 hPa | - | - | - | - |
| 1778115987 | 22.22° C | 53% | 1010.8 hPa | - | - | - | - |
| 1778115086 | 22.78° C | 53% | 1010.8 hPa | - | - | - | - |
* Rain since midnight (hover to see other rain measurements)
** Current wind speed in m/s (hover to see current wind gust speed)